Time;durP1;ratioP1;P1;durP2;ratioP2;P2;SDS_P1;SDS_P2;PMS_P1;PMS_P2;Temp;Humidity;BMP_temperature;BMP_pressure;BME280_temperature;BME280_humidity;BME280_pressure;Samples;Min_cycle;Max_cycle;Signal;HPM_P1;HPM_P2
2022/12/03 00:00:21;;;;;;;13.93;9.53;;;2.60;99.90;;;;;;5075803;28;20178;-81
2022/12/03 00:02:47;;;;;;;14.07;8.93;;;2.60;99.90;;;;;;5077216;28;20182;-81
2022/12/03 00:05:12;;;;;;;17.23;9.80;;;2.60;99.90;;;;;;5078051;28;20182;-81
2022/12/03 00:07:38;;;;;;;14.90;9.47;;;2.60;99.90;;;;;;5077058;28;20185;-81
2022/12/03 00:10:05;;;;;;;14.27;9.37;;;2.60;99.90;;;;;;5073507;28;20233;-81
2022/12/03 00:12:33;;;;;;;15.00;9.53;;;2.60;99.90;;;;;;5072434;28;20619;-81
2022/12/03 00:14:59;;;;;;;12.57;8.60;;;2.60;99.90;;;;;;5074055;28;20209;-80
2022/12/03 00:17:24;;;;;;;14.07;9.60;;;2.70;99.90;;;;;;5073356;28;20725;-81
2022/12/03 00:19:49;;;;;;;13.10;8.63;;;2.70;99.90;;;;;;5072082;28;20217;-80
2022/12/03 00:22:15;;;;;;;11.93;8.60;;;2.70;99.90;;;;;;5072283;28;20174;-81
2022/12/03 00:24:41;;;;;;;15.13;9.27;;;2.70;99.90;;;;;;5073647;28;20257;-81
2022/12/03 00:27:07;;;;;;;14.47;9.40;;;2.70;99.90;;;;;;5072256;28;20199;-81
2022/12/03 00:29:32;;;;;;;14.07;8.87;;;2.70;99.90;;;;;;5071759;28;20228;-80
2022/12/03 00:31:58;;;;;;;13.60;8.63;;;2.70;99.90;;;;;;5073822;28;20179;-81
2022/12/03 00:34:23;;;;;;;15.20;9.00;;;2.60;99.90;;;;;;5073944;28;20547;-80
2022/12/03 00:36:48;;;;;;;15.90;8.77;;;2.60;99.90;;;;;;5073055;28;20565;-80
2022/12/03 00:39:14;;;;;;;11.73;8.53;;;2.60;99.90;;;;;;5071902;28;20182;-81
2022/12/03 00:41:39;;;;;;;13.63;8.33;;;2.70;99.90;;;;;;5073109;28;20174;-80
2022/12/03 00:44:05;;;;;;;14.83;9.53;;;2.70;99.90;;;;;;5072772;28;20249;-81
2022/12/03 00:46:31;;;;;;;12.20;8.13;;;2.70;99.90;;;;;;5072885;28;20199;-81
2022/12/03 00:48:56;;;;;;;13.43;8.90;;;2.70;99.90;;;;;;5071890;28;20214;-81
2022/12/03 00:51:22;;;;;;;14.60;9.50;;;2.60;99.90;;;;;;5071788;28;20279;-82
2022/12/03 00:53:47;;;;;;;15.17;9.27;;;2.70;99.90;;;;;;5073273;28;20190;-80
2022/12/03 00:56:13;;;;;;;12.83;8.57;;;2.70;99.90;;;;;;5071733;28;20244;-80
2022/12/03 00:58:38;;;;;;;13.30;8.93;;;2.70;99.90;;;;;;5073551;28;20190;-80
2022/12/03 01:01:04;;;;;;;13.33;8.73;;;2.70;99.90;;;;;;5073064;28;20179;-80
2022/12/03 01:03:29;;;;;;;15.20;9.50;;;2.70;99.90;;;;;;5072472;28;20587;-80
2022/12/03 01:05:55;;;;;;;14.73;9.60;;;2.60;99.90;;;;;;5073364;28;20198;-80
2022/12/03 01:08:20;;;;;;;12.40;8.40;;;2.70;99.90;;;;;;5073024;28;20179;-80
2022/12/03 01:10:46;;;;;;;14.80;9.63;;;2.60;99.90;;;;;;5072537;28;20746;-81
2022/12/03 01:13:11;;;;;;;13.47;8.77;;;2.70;99.90;;;;;;5071471;28;20170;-80
2022/12/03 01:15:37;;;;;;;15.27;9.77;;;2.70;99.90;;;;;;5071494;28;20256;-81
2022/12/03 01:18:03;;;;;;;12.90;8.33;;;2.70;99.90;;;;;;5073297;28;20250;-80
2022/12/03 01:20:28;;;;;;;13.50;8.73;;;2.70;99.90;;;;;;5072964;28;20645;-81
2022/12/03 01:22:54;;;;;;;13.00;8.77;;;2.70;99.90;;;;;;5071889;28;20171;-82
2022/12/03 01:25:19;;;;;;;14.13;8.73;;;2.70;99.90;;;;;;5072945;28;20680;-80
2022/12/03 01:27:45;;;;;;;13.43;8.93;;;2.70;99.90;;;;;;5072804;28;20262;-80
2022/12/03 01:30:11;;;;;;;17.00;9.50;;;2.80;99.90;;;;;;5071759;28;20198;-79
2022/12/03 01:32:37;;;;;;;17.07;9.70;;;2.80;99.90;;;;;;5072988;28;20171;-80
2022/12/03 01:35:04;;;;;;;14.60;9.23;;;2.90;99.90;;;;;;5072877;28;20183;-80
2022/12/03 01:37:29;;;;;;;13.77;9.03;;;2.80;99.90;;;;;;5073125;28;20249;-80
2022/12/03 01:39:55;;;;;;;14.13;9.53;;;2.70;99.90;;;;;;5074593;28;20182;-80
2022/12/03 01:42:26;;;;;;;14.07;9.27;;;2.80;99.90;;;;;;5074174;28;20175;-80
2022/12/03 01:44:55;;;;;;;16.13;9.20;;;2.70;99.90;;;;;;5073019;28;20159;-80
2022/12/03 01:47:27;;;;;;;14.87;9.23;;;2.70;99.90;;;;;;5072555;28;20199;-80
2022/12/03 01:50:06;;;;;;;14.27;9.47;;;2.80;99.90;;;;;;5076504;28;20191;-80
2022/12/03 01:52:37;;;;;;;14.77;9.37;;;2.80;99.90;;;;;;5076397;28;20179;-80
2022/12/03 01:55:06;;;;;;;16.83;9.27;;;2.70;99.90;;;;;;5076781;28;20162;-80
2022/12/03 01:57:50;;;;;;;14.33;9.77;;;2.70;99.90;;;;;;5074891;28;20238;-80
2022/12/03 02:00:19;;;;;;;15.57;9.20;;;2.70;99.90;;;;;;5075116;28;20771;-80
2022/12/03 02:02:46;;;;;;;14.83;9.30;;;2.80;99.90;;;;;;5075772;28;20232;-80
2022/12/03 02:05:25;;;;;;;13.73;9.07;;;2.70;99.90;;;;;;5092483;28;20175;-80
2022/12/03 02:07:50;;;;;;;14.03;9.07;;;2.70;99.90;;;;;;5077169;28;20151;-79
2022/12/03 02:10:20;;;;;;;14.40;9.07;;;2.70;99.90;;;;;;5075276;28;20201;-80
2022/12/03 02:12:55;;;;;;;17.03;9.30;;;2.80;99.90;;;;;;5075567;28;20175;-80
2022/12/03 02:15:21;;;;;;;13.27;9.10;;;2.80;99.90;;;;;;5075616;28;20635;-80
2022/12/03 02:17:46;;;;;;;17.63;9.43;;;2.80;99.90;;;;;;5075911;28;20175;-80
2022/12/03 02:20:13;;;;;;;14.50;10.00;;;2.70;99.90;;;;;;5076397;28;20281;-80
2022/12/03 02:23:20;;;;;;;16.30;9.70;;;2.70;99.90;;;;;;5075762;28;20757;-79
2022/12/03 02:25:46;;;;;;;16.53;10.60;;;2.70;99.90;;;;;;5034800;28;20286;-79
2022/12/03 02:28:11;;;;;;;13.83;9.83;;;2.80;99.90;;;;;;5034916;28;20207;-80
2022/12/03 02:30:37;;;;;;;15.07;9.97;;;2.70;99.90;;;;;;5054155;28;20575;-80
2022/12/03 02:33:03;;;;;;;17.53;10.13;;;2.80;99.90;;;;;;5075330;28;20189;-79
2022/12/03 02:35:32;;;;;;;14.73;9.53;;;2.70;99.90;;;;;;5075015;28;20288;-80
2022/12/03 02:38:12;;;;;;;15.10;10.13;;;2.70;99.90;;;;;;5075619;28;20243;-80
2022/12/03 02:40:38;;;;;;;13.60;9.43;;;2.70;99.90;;;;;;5075289;28;20521;-80
2022/12/03 02:43:04;;;;;;;15.37;9.37;;;2.70;99.90;;;;;;5073774;28;20593;-80
2022/12/03 02:45:38;;;;;;;14.83;10.13;;;2.70;99.90;;;;;;5074608;28;20222;-80
2022/12/03 02:48:32;;;;;;;16.67;10.60;;;2.80;99.90;;;;;;5074379;28;20202;-80
2022/12/03 02:51:01;;;;;;;15.53;9.40;;;2.70;99.90;;;;;;5091101;28;20209;-80
2022/12/03 02:53:30;;;;;;;16.50;10.23;;;2.70;99.90;;;;;;5075906;28;20228;-79
2022/12/03 02:56:00;;;;;;;17.10;10.00;;;2.70;99.90;;;;;;5074402;28;20263;-79
2022/12/03 02:58:27;;;;;;;15.83;10.27;;;2.70;99.90;;;;;;5075917;28;20224;-80
2022/12/03 03:00:54;;;;;;;18.23;11.30;;;2.70;99.90;;;;;;5073606;28;20183;-79
2022/12/03 03:03:21;;;;;;;17.23;9.77;;;2.70;99.90;;;;;;5074113;28;20265;-79
2022/12/03 03:05:47;;;;;;;15.53;10.47;;;2.70;99.90;;;;;;5075136;28;20194;-80
2022/12/03 03:08:13;;;;;;;16.73;10.77;;;2.70;99.90;;;;;;5074090;28;20186;-79
2022/12/03 03:10:40;;;;;;;16.50;10.07;;;2.70;99.90;;;;;;5073340;28;20198;-80
2022/12/03 03:13:09;;;;;;;18.77;11.07;;;2.70;99.90;;;;;;5075084;28;20185;-80
2022/12/03 03:15:37;;;;;;;14.73;10.23;;;2.70;99.90;;;;;;5073790;28;20191;-80
2022/12/03 03:18:04;;;;;;;16.33;10.37;;;2.80;99.90;;;;;;5075612;28;20167;-80
2022/12/03 03:20:30;;;;;;;21.97;10.73;;;2.80;99.90;;;;;;5075756;28;20175;-80
2022/12/03 03:23:12;;;;;;;13.63;9.40;;;2.70;99.90;;;;;;5074894;28;20174;-80
2022/12/03 03:25:41;;;;;;;16.97;10.57;;;2.70;99.90;;;;;;5074175;28;20252;-80
2022/12/03 03:28:07;;;;;;;17.37;11.17;;;2.70;99.90;;;;;;5073904;28;20179;-80
2022/12/03 03:30:35;;;;;;;17.60;10.00;;;2.80;99.90;;;;;;5075362;28;20309;-80
2022/12/03 03:33:00;;;;;;;16.47;10.53;;;2.80;99.90;;;;;;5074968;28;20519;-80
2022/12/03 03:35:27;;;;;;;21.30;10.87;;;2.70;99.90;;;;;;5073767;28;20250;-80
2022/12/03 03:37:53;;;;;;;21.60;11.90;;;2.70;99.90;;;;;;5075412;28;20163;-80
2022/12/03 03:40:20;;;;;;;17.60;11.17;;;2.70;99.90;;;;;;5074357;28;20665;-80
2022/12/03 03:42:47;;;;;;;15.87;10.90;;;2.70;99.90;;;;;;5075906;28;20171;-80
2022/12/03 03:45:12;;;;;;;17.13;10.07;;;2.70;99.90;;;;;;5075752;28;20167;-79
2022/12/03 03:47:38;;;;;;;18.50;10.53;;;2.70;99.90;;;;;;5075573;28;20712;-80
2022/12/03 03:50:06;;;;;;;18.90;10.67;;;2.70;99.90;;;;;;5073464;28;20202;-80
2022/12/03 03:52:31;;;;;;;16.80;10.23;;;2.70;99.90;;;;;;5075556;28;20175;-80
2022/12/03 03:54:57;;;;;;;19.90;10.23;;;2.60;99.90;;;;;;5073909;28;20190;-80
2022/12/03 03:57:23;;;;;;;14.97;9.73;;;2.60;99.90;;;;;;5074921;28;20305;-80
2022/12/03 03:59:48;;;;;;;16.23;10.43;;;2.60;99.90;;;;;;5073457;28;20286;-80
2022/12/03 04:02:23;;;;;;;20.03;10.97;;;2.70;99.90;;;;;;5075092;28;20541;-81
2022/12/03 04:04:49;;;;;;;20.60;11.20;;;2.60;99.90;;;;;;5075312;28;20509;-80
2022/12/03 04:07:15;;;;;;;17.17;11.17;;;2.60;99.90;;;;;;5073398;28;20187;-80
2022/12/03 04:09:40;;;;;;;18.40;10.43;;;2.60;99.90;;;;;;5072911;28;20265;-80
2022/12/03 04:14:50;;;;;;;18.93;10.70;;;2.60;99.90;;;;;;5074839;28;20158;-80
2022/12/03 04:17:16;;;;;;;20.80;11.47;;;2.60;99.90;;;;;;5073672;28;20198;-81
2022/12/03 04:19:41;;;;;;;21.67;11.20;;;2.60;99.90;;;;;;5074205;28;20201;-80
2022/12/03 04:28:47;;;;;;;22.43;11.60;;;2.60;99.90;;;;;;5073917;28;20698;-81
2022/12/03 04:30:21;;;;;;;17.20;10.63;;;2.60;99.90;;;;;;5073775;28;20581;-80
2022/12/03 04:35:42;;;;;;;20.00;10.77;;;2.60;99.90;;;;;;5074023;28;20220;-78
2022/12/03 04:38:13;;;;;;;21.53;10.37;;;2.60;99.90;;;;;;5072299;28;20249;-79
2022/12/03 04:43:23;;;;;;;19.83;10.53;;;2.60;99.90;;;;;;5073969;28;20695;-80
2022/12/03 04:45:49;;;;;;;18.57;11.00;;;2.60;99.90;;;;;;5072105;28;20199;-80
2022/12/03 04:48:15;;;;;;;24.57;10.53;;;2.60;99.90;;;;;;5073990;28;20173;-80
2022/12/03 04:50:41;;;;;;;19.97;9.90;;;2.60;99.90;;;;;;5073885;28;20250;-79
2022/12/03 04:53:06;;;;;;;20.63;11.50;;;2.50;99.90;;;;;;5071968;28;20175;-80
2022/12/03 04:55:32;;;;;;;19.43;10.37;;;2.50;99.90;;;;;;5073143;28;20209;-80
2022/12/03 04:57:58;;;;;;;20.63;11.37;;;2.50;99.90;;;;;;5073499;28;20762;-80
2022/12/03 05:00:23;;;;;;;21.87;11.33;;;2.50;99.90;;;;;;5073119;28;20202;-80
2022/12/03 05:02:49;;;;;;;24.13;11.07;;;2.50;99.90;;;;;;5071781;28;20265;-80
2022/12/03 05:05:14;;;;;;;20.13;11.40;;;2.50;99.90;;;;;;5073130;28;20262;-79
2022/12/03 05:07:40;;;;;;;23.57;11.00;;;2.50;99.90;;;;;;5071729;28;20228;-81
2022/12/03 05:10:06;;;;;;;23.93;11.57;;;2.50;99.90;;;;;;5071373;28;20551;-80
2022/12/03 05:12:32;;;;;;;18.53;10.23;;;2.40;99.90;;;;;;5071602;28;20190;-80
2022/12/03 05:14:58;;;;;;;21.70;11.07;;;2.50;99.90;;;;;;5072877;28;20179;-80
2022/12/03 05:17:23;;;;;;;21.27;10.63;;;2.50;99.90;;;;;;5071405;28;20293;-80
2022/12/03 05:22:33;;;;;;;23.73;11.07;;;2.40;99.90;;;;;;5072874;28;20162;-80
2022/12/03 05:24:58;;;;;;;22.63;10.50;;;2.40;99.90;;;;;;5076302;28;20175;-80
2022/12/03 05:27:24;;;;;;;22.33;11.53;;;2.50;99.90;;;;;;5076331;28;20539;-79
2022/12/03 05:29:50;;;;;;;22.60;10.17;;;2.40;99.90;;;;;;5075162;28;20668;-80
2022/12/03 05:32:15;;;;;;;23.20;11.07;;;2.40;99.90;;;;;;5076554;28;20173;-80
2022/12/03 05:34:41;;;;;;;21.87;11.23;;;2.40;99.90;;;;;;5077775;28;20217;-80
2022/12/03 05:37:06;;;;;;;20.13;10.47;;;2.40;99.90;;;;;;5087069;28;20206;-80
2022/12/03 05:39:32;;;;;;;21.97;11.07;;;2.40;99.90;;;;;;5083446;28;20167;-79
2022/12/03 05:44:41;;;;;;;22.07;10.70;;;2.40;99.90;;;;;;5078893;28;20169;-79
2022/12/03 05:47:07;;;;;;;22.63;10.83;;;2.40;99.90;;;;;;5077411;28;20285;-80
2022/12/03 05:49:32;;;;;;;20.33;10.60;;;2.40;99.90;;;;;;5077632;28;20609;-80
2022/12/03 05:51:58;;;;;;;18.90;10.70;;;2.40;99.90;;;;;;5078495;28;20285;-80
2022/12/03 05:54:23;;;;;;;23.60;11.40;;;2.40;99.90;;;;;;5078492;28;20177;-80
2022/12/03 05:56:49;;;;;;;20.43;11.23;;;2.40;99.90;;;;;;5078877;28;20214;-80
2022/12/03 05:59:14;;;;;;;19.63;10.53;;;2.40;99.90;;;;;;5078866;28;20236;-79
2022/12/03 06:01:40;;;;;;;22.87;11.03;;;2.40;99.90;;;;;;5078156;28;20175;-80
2022/12/03 06:04:05;;;;;;;19.33;10.73;;;2.40;99.90;;;;;;5078275;28;20175;-80
2022/12/03 06:06:31;;;;;;;23.20;11.37;;;2.40;99.90;;;;;;5078044;28;20195;-79
2022/12/03 06:08:56;;;;;;;22.17;10.67;;;2.40;99.90;;;;;;5075721;28;20554;-80
2022/12/03 06:11:22;;;;;;;23.27;10.97;;;2.40;99.90;;;;;;5077481;28;20198;-80
2022/12/03 06:13:47;;;;;;;23.30;12.10;;;2.40;99.90;;;;;;5077626;28;20183;-80
2022/12/03 06:16:13;;;;;;;22.97;11.33;;;2.40;99.90;;;;;;5076125;28;20774;-79
2022/12/03 06:18:38;;;;;;;20.23;11.50;;;2.40;99.90;;;;;;5075492;28;20175;-80
2022/12/03 06:21:04;;;;;;;22.17;11.33;;;2.40;99.90;;;;;;5076806;28;20175;-80
2022/12/03 06:23:30;;;;;;;20.73;10.67;;;2.40;99.90;;;;;;5075221;28;20599;-80
2022/12/03 06:25:55;;;;;;;21.60;11.00;;;2.40;99.90;;;;;;5076609;28;20198;-80
2022/12/03 06:28:21;;;;;;;26.60;12.07;;;2.40;99.90;;;;;;5075397;28;20201;-80
2022/12/03 06:30:46;;;;;;;23.80;11.57;;;2.40;99.90;;;;;;5075311;28;20290;-80
2022/12/03 06:33:12;;;;;;;22.90;10.27;;;2.40;99.90;;;;;;5073159;28;20270;-80
2022/12/03 06:35:37;;;;;;;22.70;11.17;;;2.30;99.90;;;;;;5075766;28;20282;-81
2022/12/03 06:38:03;;;;;;;21.73;10.97;;;2.30;99.90;;;;;;5076943;28;20273;-81
2022/12/03 06:40:28;;;;;;;24.93;11.10;;;2.30;99.90;;;;;;5076133;28;20185;-81
2022/12/03 06:42:54;;;;;;;24.73;11.97;;;2.30;99.90;;;;;;5077624;28;20171;-81
2022/12/03 06:45:19;;;;;;;21.17;11.33;;;2.30;99.90;;;;;;5077864;28;20175;-81
2022/12/03 06:47:45;;;;;;;22.80;11.23;;;2.30;99.90;;;;;;5076661;28;20182;-82
2022/12/03 06:50:11;;;;;;;20.73;10.40;;;2.30;99.90;;;;;;5076810;28;20270;-81
2022/12/03 06:52:36;;;;;;;24.80;12.47;;;2.30;99.90;;;;;;5077884;28;20171;-82
2022/12/03 06:55:02;;;;;;;24.63;12.50;;;2.30;99.90;;;;;;5076532;28;20270;-82
2022/12/03 06:57:28;;;;;;;25.03;11.40;;;2.30;99.90;;;;;;5076621;28;20220;-82
2022/12/03 06:59:53;;;;;;;24.57;11.40;;;2.30;99.90;;;;;;5077774;28;20224;-82
2022/12/03 07:02:19;;;;;;;30.20;13.20;;;2.30;99.90;;;;;;5076552;28;20597;-82
2022/12/03 07:04:44;;;;;;;23.60;11.23;;;2.30;99.90;;;;;;5077641;28;20262;-82
2022/12/03 07:07:10;;;;;;;22.33;11.97;;;2.30;99.90;;;;;;5077964;28;20305;-82
2022/12/03 07:09:35;;;;;;;22.13;11.87;;;2.30;99.90;;;;;;5078062;28;20265;-82
2022/12/03 07:12:01;;;;;;;25.10;11.97;;;2.30;99.90;;;;;;5077929;28;20274;-82
2022/12/03 07:14:26;;;;;;;22.70;11.07;;;2.20;99.90;;;;;;5075374;28;20178;-81
2022/12/03 07:16:52;;;;;;;20.57;10.30;;;2.20;99.90;;;;;;5077743;28;20262;-82
2022/12/03 07:19:17;;;;;;;20.77;10.53;;;2.20;99.90;;;;;;5077998;28;20625;-82
2022/12/03 07:21:43;;;;;;;23.33;10.47;;;2.30;99.90;;;;;;5078926;28;20182;-81
2022/12/03 07:24:09;;;;;;;23.80;10.97;;;2.30;99.90;;;;;;5077780;28;20220;-82
2022/12/03 07:26:34;;;;;;;24.03;11.73;;;2.30;99.90;;;;;;5076773;28;20195;-81
2022/12/03 07:29:00;;;;;;;23.30;11.10;;;2.30;99.90;;;;;;5077483;28;20167;-81
2022/12/03 07:31:25;;;;;;;23.23;10.90;;;2.30;99.90;;;;;;5078222;28;20256;-82
2022/12/03 07:33:51;;;;;;;21.50;10.73;;;2.30;99.90;;;;;;5076872;28;20178;-82
2022/12/03 07:36:16;;;;;;;25.23;11.37;;;2.30;99.90;;;;;;5077621;28;20676;-82
2022/12/03 07:38:43;;;;;;;24.43;11.07;;;2.30;99.90;;;;;;5077542;28;20173;-82
2022/12/03 07:41:09;;;;;;;23.57;10.37;;;2.30;99.90;;;;;;5077449;28;20184;-82
2022/12/03 07:43:34;;;;;;;24.37;11.73;;;2.30;99.90;;;;;;5076255;28;20745;-81
2022/12/03 07:45:59;;;;;;;20.80;10.67;;;2.30;99.90;;;;;;5079827;28;20201;-81
2022/12/03 07:48:25;;;;;;;22.30;10.57;;;2.40;99.90;;;;;;5077284;28;20240;-80
2022/12/03 07:50:51;;;;;;;26.17;12.30;;;2.40;99.90;;;;;;5075209;28;20203;-81
2022/12/03 07:53:16;;;;;;;25.13;11.50;;;2.40;99.90;;;;;;5076012;28;20194;-80
2022/12/03 07:55:42;;;;;;;23.67;9.93;;;2.40;99.90;;;;;;5074547;28;20684;-81
2022/12/03 07:58:08;;;;;;;21.50;10.47;;;2.40;99.90;;;;;;5077668;28;20159;-81
2022/12/03 08:00:33;;;;;;;21.17;11.03;;;2.40;99.90;;;;;;5077737;28;20551;-80
2022/12/03 08:02:59;;;;;;;22.53;10.53;;;2.40;99.90;;;;;;5075768;28;20189;-81
2022/12/03 08:05:25;;;;;;;21.43;11.37;;;2.50;99.90;;;;;;5075313;28;20185;-81
2022/12/03 08:07:51;;;;;;;21.13;10.00;;;2.50;99.90;;;;;;5078035;28;20591;-80
2022/12/03 08:10:17;;;;;;;23.00;10.27;;;2.50;99.90;;;;;;5074369;28;20198;-80
2022/12/03 08:12:43;;;;;;;19.83;10.73;;;2.60;99.90;;;;;;5077939;28;20186;-80
2022/12/03 08:15:20;;;;;;;18.33;9.80;;;2.60;99.90;;;;;;5076656;28;20645;-81
2022/12/03 08:18:11;;;;;;;21.27;9.67;;;2.70;99.90;;;;;;5077891;28;20246;-81
2022/12/03 08:20:38;;;;;;;24.00;11.63;;;2.70;99.90;;;;;;5075753;28;20171;-81
2022/12/03 08:23:19;;;;;;;23.07;11.00;;;2.80;99.90;;;;;;5075466;28;20179;-81
2022/12/03 08:25:46;;;;;;;24.00;10.37;;;2.80;99.90;;;;;;5076343;28;20204;-81
2022/12/03 08:28:18;;;;;;;18.63;10.33;;;2.80;99.90;;;;;;5077679;28;20201;-81
2022/12/03 08:30:54;;;;;;;22.33;10.27;;;2.80;99.90;;;;;;5074645;28;20210;-81
2022/12/03 08:33:26;;;;;;;19.63;11.00;;;2.80;99.90;;;;;;5076947;28;20547;-81
2022/12/03 08:35:52;;;;;;;24.23;11.80;;;2.90;99.90;;;;;;5075662;28;20227;-80
2022/12/03 08:38:21;;;;;;;18.37;10.00;;;2.90;99.90;;;;;;5076947;28;20171;-81
2022/12/03 08:40:49;;;;;;;25.03;11.13;;;3.00;99.90;;;;;;5075089;28;20178;-81
2022/12/03 08:43:26;;;;;;;21.53;11.17;;;3.00;99.90;;;;;;5077531;28;20301;-80
2022/12/03 08:45:56;;;;;;;21.87;10.97;;;3.10;99.90;;;;;;5078065;28;20198;-81
2022/12/03 08:48:33;;;;;;;21.77;11.43;;;3.10;99.90;;;;;;5076931;28;20179;-81
2022/12/03 08:51:30;;;;;;;18.63;10.53;;;3.10;99.90;;;;;;5077468;28;20209;-81
2022/12/03 08:54:06;;;;;;;17.73;9.50;;;3.00;99.90;;;;;;5072724;28;20179;-80
2022/12/03 08:56:34;;;;;;;20.13;10.47;;;3.00;99.90;;;;;;5074890;28;20228;-81
2022/12/03 08:59:21;;;;;;;19.70;9.90;;;3.00;99.90;;;;;;5078934;28;20641;-81
2022/12/03 09:01:48;;;;;;;19.63;10.47;;;3.00;99.90;;;;;;5079579;28;20171;-81
2022/12/03 09:04:59;;;;;;;17.20;10.70;;;2.90;99.90;;;;;;5081422;28;20248;-81
2022/12/03 09:07:24;;;;;;;17.40;9.47;;;2.90;99.90;;;;;;5038607;28;20203;-81
2022/12/03 09:09:50;;;;;;;18.90;9.90;;;2.80;99.90;;;;;;5075000;28;20194;-81
2022/12/03 09:12:16;;;;;;;23.13;10.97;;;2.80;99.90;;;;;;5086751;28;20215;-81
2022/12/03 09:14:42;;;;;;;18.83;10.23;;;2.80;99.90;;;;;;5091686;28;20181;-81
2022/12/03 09:17:07;;;;;;;18.70;10.07;;;2.80;99.90;;;;;;5091061;28;20684;-81
2022/12/03 09:19:33;;;;;;;23.07;11.07;;;2.80;99.90;;;;;;5081881;28;20183;-80
2022/12/03 09:21:58;;;;;;;20.97;10.57;;;2.80;99.90;;;;;;5081337;28;20178;-80
2022/12/03 09:24:24;;;;;;;20.47;11.07;;;2.80;99.90;;;;;;5082808;28;20175;-81
2022/12/03 09:26:49;;;;;;;21.20;10.97;;;2.80;99.90;;;;;;5081093;28;20290;-81
2022/12/03 09:29:15;;;;;;;19.77;11.37;;;2.90;99.90;;;;;;5082315;28;20258;-81
2022/12/03 09:31:40;;;;;;;22.90;11.47;;;2.90;99.90;;;;;;5081041;28;20209;-80
2022/12/03 09:34:07;;;;;;;20.37;11.03;;;2.90;99.90;;;;;;5089343;28;20180;-81
2022/12/03 09:36:33;;;;;;;20.40;10.13;;;2.90;99.90;;;;;;5081171;28;20566;-81
2022/12/03 09:38:58;;;;;;;19.40;11.07;;;2.90;99.90;;;;;;5081763;28;20248;-81
2022/12/03 09:41:25;;;;;;;18.13;9.50;;;2.90;99.90;;;;;;5086187;28;20179;-80
2022/12/03 09:43:52;;;;;;;20.47;10.97;;;2.80;99.90;;;;;;5083169;28;20296;-81
2022/12/03 09:46:18;;;;;;;18.60;10.07;;;2.90;99.90;;;;;;5081020;28;20195;-81
2022/12/03 09:48:44;;;;;;;21.23;11.30;;;2.90;99.90;;;;;;5081984;28;20183;-81
2022/12/03 09:51:10;;;;;;;21.03;10.03;;;2.90;99.90;;;;;;5080114;28;20213;-81
2022/12/03 09:53:36;;;;;;;18.37;10.70;;;2.90;99.90;;;;;;5080213;28;20171;-81
2022/12/03 09:56:05;;;;;;;21.47;10.47;;;2.90;99.90;;;;;;5078989;28;20347;-80
2022/12/03 09:58:30;;;;;;;18.50;10.90;;;3.00;99.90;;;;;;5080504;28;20183;-81
2022/12/03 10:00:56;;;;;;;19.20;11.20;;;2.90;99.90;;;;;;5079771;28;20288;-80
2022/12/03 10:03:28;;;;;;;24.37;11.87;;;2.90;99.90;;;;;;5078617;28;20183;-80
2022/12/03 10:05:54;;;;;;;17.27;10.13;;;2.90;99.90;;;;;;5078564;28;20560;-81
2022/12/03 10:08:21;;;;;;;20.67;11.63;;;2.90;99.90;;;;;;5079437;28;20249;-80
2022/12/03 10:10:50;;;;;;;26.20;11.40;;;2.90;99.90;;;;;;5079450;28;20205;-81
2022/12/03 10:13:22;;;;;;;24.43;11.63;;;2.90;99.90;;;;;;5080238;28;20199;-81
2022/12/03 10:15:47;;;;;;;20.57;11.37;;;3.00;99.90;;;;;;5078615;28;20199;-81
2022/12/03 10:18:20;;;;;;;23.90;12.13;;;3.00;99.90;;;;;;5078987;28;20217;-81
2022/12/03 10:20:46;;;;;;;20.70;11.33;;;3.00;99.90;;;;;;5078788;28;20210;-81
2022/12/03 10:23:26;;;;;;;25.33;11.80;;;3.10;99.90;;;;;;5079277;28;20187;-81
2022/12/03 10:25:58;;;;;;;20.00;11.53;;;3.10;99.90;;;;;;5080348;28;20221;-81
2022/12/03 10:28:29;;;;;;;21.37;10.40;;;3.20;99.90;;;;;;5080270;28;20528;-81
2022/12/03 10:30:56;;;;;;;25.30;13.27;;;3.20;99.90;;;;;;5079549;28;20199;-81
2022/12/03 10:33:32;;;;;;;23.83;11.97;;;3.20;99.90;;;;;;5078781;28;20179;-81
2022/12/03 10:36:14;;;;;;;25.23;12.43;;;3.20;99.90;;;;;;5080932;28;20675;-81
2022/12/03 10:38:40;;;;;;;26.00;13.07;;;3.30;99.90;;;;;;5076665;28;20178;-80
2022/12/03 10:41:21;;;;;;;20.70;11.50;;;3.30;99.90;;;;;;5078675;28;20178;-81
2022/12/03 10:43:46;;;;;;;21.33;11.40;;;3.30;99.90;;;;;;5078564;28;20182;-81
2022/12/03 10:46:17;;;;;;;23.43;12.47;;;3.30;99.90;;;;;;5076931;28;20191;-81
2022/12/03 10:48:43;;;;;;;24.53;13.37;;;3.30;99.90;;;;;;5077032;28;20265;-80
2022/12/03 10:51:19;;;;;;;19.70;12.13;;;3.30;99.90;;;;;;5078121;28;20230;-81
2022/12/03 10:53:47;;;;;;;24.67;12.93;;;3.30;99.90;;;;;;5077884;28;20253;-81
2022/12/03 10:56:25;;;;;;;21.27;11.77;;;3.30;99.90;;;;;;5078383;28;20210;-81
2022/12/03 10:58:51;;;;;;;24.17;12.50;;;3.30;99.90;;;;;;5076556;28;20728;-81
2022/12/03 11:01:22;;;;;;;26.20;12.50;;;3.30;99.90;;;;;;5078814;28;20179;-81
2022/12/03 11:03:48;;;;;;;24.17;12.63;;;3.30;99.90;;;;;;5076617;28;20216;-81
2022/12/03 11:06:16;;;;;;;23.23;13.10;;;3.30;99.90;;;;;;5076549;28;20199;-81
2022/12/03 11:08:44;;;;;;;23.60;12.77;;;3.30;99.90;;;;;;5076844;28;20178;-81
2022/12/03 11:11:25;;;;;;;21.27;12.33;;;3.30;99.90;;;;;;5077716;28;20199;-81
2022/12/03 11:13:55;;;;;;;21.00;12.00;;;3.30;99.90;;;;;;5078281;28;20163;-82
2022/12/03 11:16:38;;;;;;;24.87;12.73;;;3.30;99.90;;;;;;5078850;28;20218;-81
2022/12/03 11:19:37;;;;;;;25.40;12.60;;;3.30;99.90;;;;;;5078334;28;20601;-81
2022/12/03 11:22:03;;;;;;;22.37;12.27;;;3.40;99.90;;;;;;5075795;28;20178;-81
2022/12/03 11:24:31;;;;;;;22.07;12.13;;;3.40;99.90;;;;;;5077519;28;20177;-82
2022/12/03 11:26:57;;;;;;;22.20;11.83;;;3.40;99.90;;;;;;5078424;28;20190;-81
2022/12/03 11:29:49;;;;;;;21.80;11.83;;;3.30;99.90;;;;;;5076799;28;20182;-81
2022/12/03 11:32:36;;;;;;;22.83;12.37;;;3.30;99.90;;;;;;5077437;28;20704;-81
2022/12/03 11:35:22;;;;;;;22.00;12.47;;;3.30;99.90;;;;;;5076571;28;20257;-81
2022/12/03 11:37:48;;;;;;;25.70;12.90;;;3.30;99.90;;;;;;5070640;28;20656;-81
2022/12/03 11:40:16;;;;;;;27.30;13.87;;;3.20;99.90;;;;;;5077407;28;20224;-82
2022/12/03 11:42:44;;;;;;;22.30;13.23;;;3.20;99.90;;;;;;5078891;28;20178;-81
2022/12/03 11:45:09;;;;;;;24.50;12.90;;;3.20;99.90;;;;;;5078735;28;20171;-81
2022/12/03 11:47:38;;;;;;;27.73;13.23;;;3.20;99.90;;;;;;5076003;28;20243;-81
2022/12/03 11:50:37;;;;;;;22.20;12.13;;;3.20;99.90;;;;;;5077158;28;20179;-82
2022/12/03 11:53:16;;;;;;;21.43;11.73;;;3.20;99.90;;;;;;5077953;28;20156;-81
2022/12/03 11:55:47;;;;;;;24.50;13.63;;;3.30;99.90;;;;;;5076920;28;20206;-81
2022/12/03 11:58:27;;;;;;;24.07;13.33;;;3.30;99.90;;;;;;5077835;28;20174;-82
2022/12/03 12:00:54;;;;;;;23.80;12.60;;;3.30;99.90;;;;;;5078481;28;20175;-82
2022/12/03 12:03:47;;;;;;;26.17;14.13;;;3.20;99.90;;;;;;5080334;28;20179;-82
2022/12/03 12:06:17;;;;;;;22.67;12.70;;;3.20;99.90;;;;;;5079488;28;20206;-82
2022/12/03 12:08:48;;;;;;;24.40;12.23;;;3.20;99.90;;;;;;5079714;28;20175;-81
2022/12/03 12:11:19;;;;;;;23.33;12.73;;;3.30;99.90;;;;;;5079673;28;20297;-82
2022/12/03 12:13:54;;;;;;;23.73;13.50;;;3.20;99.90;;;;;;5078139;28;20546;-81
2022/12/03 12:16:51;;;;;;;24.07;13.17;;;3.20;99.90;;;;;;5079197;28;20574;-82
2022/12/03 12:19:31;;;;;;;20.23;12.13;;;3.30;99.90;;;;;;5078400;28;20235;-81
2022/12/03 12:22:17;;;;;;;23.10;13.00;;;3.30;99.90;;;;;;5079041;28;20276;-82
2022/12/03 12:24:45;;;;;;;23.77;13.17;;;3.20;99.90;;;;;;5079055;28;20167;-81
2022/12/03 12:27:16;;;;;;;23.30;12.43;;;3.30;99.90;;;;;;5079343;28;20269;-81
2022/12/03 12:29:45;;;;;;;24.07;13.30;;;3.20;99.90;;;;;;5078324;28;20175;-81
2022/12/03 12:32:12;;;;;;;23.67;13.17;;;3.20;99.90;;;;;;5078676;28;20256;-82
2022/12/03 12:34:43;;;;;;;28.77;13.47;;;3.30;99.90;;;;;;5078833;28;20257;-82
2022/12/03 12:37:22;;;;;;;22.67;12.50;;;3.20;99.90;;;;;;5078400;28;20194;-82
2022/12/03 12:39:51;;;;;;;25.23;12.67;;;3.20;99.90;;;;;;5079626;28;20155;-81
2022/12/03 12:42:32;;;;;;;24.40;13.30;;;3.30;99.90;;;;;;5077408;28;20734;-81
2022/12/03 12:45:04;;;;;;;24.87;13.53;;;3.30;99.90;;;;;;5078984;28;20178;-80
2022/12/03 12:47:30;;;;;;;21.67;12.30;;;3.30;99.90;;;;;;5079338;28;20566;-81
2022/12/03 12:49:56;;;;;;;22.80;13.03;;;3.30;99.90;;;;;;5078273;28;20180;-82
2022/12/03 12:52:22;;;;;;;23.23;13.10;;;3.30;99.90;;;;;;5080644;28;20178;-81
2022/12/03 12:54:47;;;;;;;21.50;12.27;;;3.20;99.90;;;;;;5079860;28;20198;-81
2022/12/03 12:57:19;;;;;;;28.70;14.43;;;3.20;99.90;;;;;;5079807;28;20244;-82
2022/12/03 12:59:44;;;;;;;23.17;13.03;;;3.30;99.90;;;;;;5076773;28;20167;-81
2022/12/03 13:02:59;;;;;;;24.90;13.37;;;3.30;99.90;;;;;;5075311;28;20266;-81
2022/12/03 13:05:30;;;;;;;27.33;14.10;;;3.30;99.90;;;;;;5074608;28;20241;-81